MSC Annamaria — H3HN — position and weather

sailwx.info

Track history (hours):
 
Tides and Currents Weather Stations Pressure Air Temp Water Temp Dewpoint Dewpoint Depression Visibility Wind Speed Wind Dir Waves Ship Positions

MSC Annamaria

Last reported at 2016-Jul-24 06:32 UTC. Time now 2016-Jul-24 06:54 UTC.
Position N 37°57' E 023°36'.

Length 188 m; draft 6.4 m.

Type: Ship (hazmat cat A). MMSI: 353852000.

Date/timePositionNaut miles runAvg speedWind from/ knotsBaromVisibWave heightAir tempDewpointWater temp
2016-Jul-24 06:32N 37°57' E 023°36'0 0.0
2016-Jul-24 05:27N 37°57' E 023°36'0 0.0
2016-Jul-24 04:33N 37°57' E 023°36'0 0.0
2016-Jul-24 03:26N 37°57' E 023°36'0 0.0
2016-Jul-24 02:28N 37°57' E 023°36'0 0.0
2016-Jul-24 01:33N 37°57' E 023°36'0 0.0
2016-Jul-24 00:31N 37°57' E 023°36'0 0.0
2016-Jul-23 23:33N 37°57' E 023°36'0 0.0
2016-Jul-23 22:33N 37°57' E 023°36'0 0.0
2016-Jul-23 21:33N 37°57' E 023°36'0 0.0
2016-Jul-23 20:28N 37°57' E 023°36'0 0.0
2016-Jul-23 19:32N 37°57' E 023°36'0 0.0
2016-Jul-23 18:31N 37°57' E 023°36'0 0.0
2016-Jul-23 17:31N 37°57' E 023°36'0 0.0
2016-Jul-23 16:32N 37°57' E 023°36'3 2.8
2016-Jul-23 15:33N 37°55' E 023°37'8 8.0
2016-Jul-23 14:33N 37°48' E 023°41'1313.1
2016-Jul-23 13:33N 37°35' E 023°46'1313.1
2016-Jul-23 12:33N 37°22' E 023°49'3912.1
2016-Jul-23 09:19N 36°43' E 023°53'1012.7
2016-Jul-23 08:33N 36°35' E 023°47'1612.8
2016-Jul-23 07:20N 36°22' E 023°36'1012.8
2016-Jul-23 06:33N 36°14' E 023°29'2412.1
2016-Jul-23 04:33N 36°00' E 023°04'58212.9
2016-Jul-21 07:33N 43°15' E 014°44'1313.0
2016-Jul-21 06:33N 43°25' E 014°31'2612.9
2016-Jul-21 04:33N 43°43' E 014°06'1313.0
2016-Jul-21 03:33N 43°52' E 013°53'1313.0
2016-Jul-21 02:33N 43°59' E 013°37'1313.3
2016-Jul-21 01:33N 44°06' E 013°22'1312.7
2016-Jul-21 00:34N 44°15' E 013°10'1413.7
2016-Jul-20 23:33N 44°28' E 013°05'1313.4
2016-Jul-20 22:34N 44°41' E 012°59'1413.5
2016-Jul-20 21:34N 44°53' E 012°51'1313.4
2016-Jul-20 20:34N 45°05' E 012°43'1312.6
2016-Jul-20 19:33N 45°14' E 012°30'1111.5
2016-Jul-20 18:34N 45°21' E 012°16'7 6.2
2016-Jul-20 17:29N 45°27' E 012°15'0 0.0
2016-Jul-20 16:31N 45°27' E 012°15'0 0.0
2016-Jul-20 15:33N 45°27' E 012°15'0 0.0
2016-Jul-20 14:31N 45°27' E 012°15'0 0.0
2016-Jul-20 13:31N 45°27' E 012°15'0 0.0
2016-Jul-20 12:31N 45°27' E 012°15'0 0.0
2016-Jul-20 11:33N 45°27' E 012°15'0 0.0
2016-Jul-20 10:31N 45°27' E 012°15'0 0.0
2016-Jul-20 09:30N 45°27' E 012°15'0 0.0
2016-Jul-20 08:28N 45°27' E 012°15'0 0.0
2016-Jul-20 07:27N 45°27' E 012°15'0 0.0
2016-Jul-20 06:34N 45°27' E 012°15'0 0.4
2016-Jul-20 05:34N 45°27' E 012°16'7 6.8
2016-Jul-20 04:34N 45°20' E 012°18'7 6.9
2016-Jul-20 03:33N 45°19' E 012°27'3 2.4
2016-Jul-20 02:29N 45°21' E 012°29'0 0.0
2016-Jul-20 01:31N 45°21' E 012°29'0 0.0
2016-Jul-20 00:31N 45°21' E 012°29'0 0.0
2016-Jul-19 23:32N 45°21' E 012°29'0 0.1
2016-Jul-19 22:31N 45°21' E 012°29'0 0.0
2016-Jul-19 21:31N 45°21' E 012°29'0 0.0
2016-Jul-19 20:31N 45°21' E 012°29'0 0.0
2016-Jul-19 19:26N 45°21' E 012°29'0 0.0
2016-Jul-19 18:32N 45°21' E 012°29'0 0.0
2016-Jul-19 17:33N 45°21' E 012°29'0 0.0
2016-Jul-19 16:30N 45°21' E 012°29'0 0.0
2016-Jul-19 15:33N 45°21' E 012°29'0 0.1
2016-Jul-19 14:33N 45°21' E 012°29'6 6.1
2016-Jul-19 13:33N 45°16' E 012°34'1212.4
2016-Jul-19 12:33N 45°08' E 012°47'1313.1
2016-Jul-19 11:33N 44°56' E 012°53'1413.8
2016-Jul-19 10:33N 44°43' E 012°47'1313.4
2016-Jul-19 09:33N 44°30' E 012°41'1111.0
2016-Jul-19 08:33N 44°30' E 012°25'7 7.4
2016-Jul-19 07:33N 44°28' E 012°15'1 0.3
2016-Jul-19 04:33N 44°27' E 012°15'0 0.0
2016-Jul-19 03:33N 44°27' E 012°15'0 0.0
2016-Jul-19 02:33N 44°27' E 012°15'0 0.0
2016-Jul-19 01:33N 44°27' E 012°15'0 0.0
2016-Jul-19 00:33N 44°27' E 012°15'0 0.0
2016-Jul-18 23:30N 44°27' E 012°15'0 0.0
2016-Jul-18 22:32N 44°27' E 012°15'0 0.0
2016-Jul-18 21:33N 44°27' E 012°15'0 0.0
2016-Jul-18 20:22N 44°27' E 012°15'0 0.0
2016-Jul-18 19:33N 44°27' E 012°15'0 0.0
2016-Jul-18 18:32N 44°27' E 012°15'0 0.0
2016-Jul-18 17:26N 44°27' E 012°15'0 0.0
2016-Jul-18 16:30N 44°27' E 012°15'0 0.0
2016-Jul-18 15:27N 44°27' E 012°15'0 0.0
2016-Jul-18 14:10N 44°27' E 012°15'0 0.0
2016-Jul-18 13:06N 44°27' E 012°15'2 1.2
2016-Jul-18 11:34N 44°29' E 012°16'10 4.0
2016-Jul-18 09:06N 44°31' E 012°29'0 0.0
2016-Jul-18 08:31N 44°31' E 012°29'0 0.0
2016-Jul-18 07:33N 44°31' E 012°29'0 0.1
2016-Jul-18 06:23N 44°31' E 012°29'0 0.0
2016-Jul-18 04:28N 44°31' E 012°29'0 0.0
2016-Jul-18 03:32N 44°31' E 012°29'0 0.0
2016-Jul-18 02:30N 44°31' E 012°29'0 0.0
2016-Jul-18 01:31N 44°31' E 012°29'0 0.0
2016-Jul-18 00:28N 44°31' E 012°29'0 0.0
2016-Jul-17 23:31N 44°31' E 012°29'0 0.1
2016-Jul-17 22:32N 44°31' E 012°29'0 0.1
2016-Jul-17 21:25N 44°31' E 012°29'0 0.0
2016-Jul-17 20:31N 44°31' E 012°29'0 0.0
2016-Jul-17 19:28N 44°31' E 012°29'0 0.0
2016-Jul-17 18:31N 44°31' E 012°29'0 0.0
2016-Jul-17 17:26N 44°31' E 012°29'0 0.0
2016-Jul-17 16:28N 44°31' E 012°29'0 0.0
2016-Jul-17 15:29N 44°31' E 012°29'0 0.0
2016-Jul-17 14:33N 44°31' E 012°29'0 0.0
2016-Jul-17 13:33N 44°31' E 012°29'0 0.0
2016-Jul-17 08:26N 44°31' E 012°29'5 5.4
2016-Jul-17 07:27N 44°30' E 012°36'1112.3
2016-Jul-17 06:33N 44°29' E 012°52'  
2016-Jul-15 01:31N 35°60' E 023°02'1414.1
2016-Jul-15 00:33N 36°05' E 023°18'1414.3
2016-Jul-14 23:33N 36°19' E 023°23'1414.3
2016-Jul-14 22:33N 36°33' E 023°28'1414.3
2016-Jul-14 21:34N 36°46' E 023°33'1414.4
2016-Jul-14 20:34N 37°00' E 023°36'1514.9
2016-Jul-14 19:33N 37°15' E 023°38'1414.0
2016-Jul-14 18:34N 37°29' E 023°41'1313.2
2016-Jul-14 17:33N 37°42' E 023°40'1413.8
2016-Jul-14 16:34N 37°55' E 023°36'2 1.9
2016-Jul-14 15:33N 37°57' E 023°36'0 0.0
2016-Jul-14 14:31N 37°57' E 023°36'0 0.0
2016-Jul-14 13:33N 37°57' E 023°36'0 0.0
2016-Jul-14 12:30N 37°57' E 023°36'0 0.0
2016-Jul-14 11:31N 37°57' E 023°36'0 0.0
2016-Jul-14 10:32N 37°57' E 023°36'1 1.3
2016-Jul-14 09:33N 37°56' E 023°36'4 3.8
2016-Jul-14 08:33N 37°53' E 023°38'9 8.5
2016-Jul-14 07:33N 37°45' E 023°43'1413.9
2016-Jul-14 06:33N 37°32' E 023°49'  
Track history (hours):
 
Tides and Currents Weather Stations Pressure Air Temp Water Temp Dewpoint Dewpoint Depression Visibility Wind Speed Wind Dir Waves Ship Positions

MSC Annamaria

Last reported at 2016-Jul-24 06:32 UTC. Time now 2016-Jul-24 06:54 UTC.
Position N 37°57' E 023°36'.

Length 188 m; draft 6.4 m.

Type: Ship (hazmat cat A). MMSI: 353852000.

Date/timePositionNaut miles runAvg speedWind from/ knotsBaromVisibWave heightAir tempDewpointWater temp
2016-Jul-24 06:32N 37°57' E 023°36'0 0.0
2016-Jul-24 05:27N 37°57' E 023°36'0 0.0
2016-Jul-24 04:33N 37°57' E 023°36'0 0.0
2016-Jul-24 03:26N 37°57' E 023°36'0 0.0
2016-Jul-24 02:28N 37°57' E 023°36'0 0.0
2016-Jul-24 01:33N 37°57' E 023°36'0 0.0
2016-Jul-24 00:31N 37°57' E 023°36'0 0.0
2016-Jul-23 23:33N 37°57' E 023°36'0 0.0
2016-Jul-23 22:33N 37°57' E 023°36'0 0.0
2016-Jul-23 21:33N 37°57' E 023°36'0 0.0
2016-Jul-23 20:28N 37°57' E 023°36'0 0.0
2016-Jul-23 19:32N 37°57' E 023°36'0 0.0
2016-Jul-23 18:31N 37°57' E 023°36'0 0.0
2016-Jul-23 17:31N 37°57' E 023°36'0 0.0
2016-Jul-23 16:32N 37°57' E 023°36'3 2.8
2016-Jul-23 15:33N 37°55' E 023°37'8 8.0
2016-Jul-23 14:33N 37°48' E 023°41'1313.1
2016-Jul-23 13:33N 37°35' E 023°46'1313.1
2016-Jul-23 12:33N 37°22' E 023°49'3912.1
2016-Jul-23 09:19N 36°43' E 023°53'1012.7
2016-Jul-23 08:33N 36°35' E 023°47'1612.8
2016-Jul-23 07:20N 36°22' E 023°36'1012.8
2016-Jul-23 06:33N 36°14' E 023°29'2412.1
2016-Jul-23 04:33N 36°00' E 023°04'58212.9
2016-Jul-21 07:33N 43°15' E 014°44'1313.0
2016-Jul-21 06:33N 43°25' E 014°31'2612.9
2016-Jul-21 04:33N 43°43' E 014°06'1313.0
2016-Jul-21 03:33N 43°52' E 013°53'1313.0
2016-Jul-21 02:33N 43°59' E 013°37'1313.3
2016-Jul-21 01:33N 44°06' E 013°22'1312.7
2016-Jul-21 00:34N 44°15' E 013°10'1413.7
2016-Jul-20 23:33N 44°28' E 013°05'1313.4
2016-Jul-20 22:34N 44°41' E 012°59'1413.5
2016-Jul-20 21:34N 44°53' E 012°51'1313.4
2016-Jul-20 20:34N 45°05' E 012°43'1312.6
2016-Jul-20 19:33N 45°14' E 012°30'1111.5
2016-Jul-20 18:34N 45°21' E 012°16'7 6.2
2016-Jul-20 17:29N 45°27' E 012°15'0 0.0
2016-Jul-20 16:31N 45°27' E 012°15'0 0.0
2016-Jul-20 15:33N 45°27' E 012°15'0 0.0
2016-Jul-20 14:31N 45°27' E 012°15'0 0.0
2016-Jul-20 13:31N 45°27' E 012°15'0 0.0
2016-Jul-20 12:31N 45°27' E 012°15'0 0.0
2016-Jul-20 11:33N 45°27' E 012°15'0 0.0
2016-Jul-20 10:31N 45°27' E 012°15'0 0.0
2016-Jul-20 09:30N 45°27' E 012°15'0 0.0
2016-Jul-20 08:28N 45°27' E 012°15'0 0.0
2016-Jul-20 07:27N 45°27' E 012°15'0 0.0
2016-Jul-20 06:34N 45°27' E 012°15'0 0.4
2016-Jul-20 05:34N 45°27' E 012°16'7 6.8
2016-Jul-20 04:34N 45°20' E 012°18'7 6.9
2016-Jul-20 03:33N 45°19' E 012°27'3 2.4
2016-Jul-20 02:29N 45°21' E 012°29'0 0.0
2016-Jul-20 01:31N 45°21' E 012°29'0 0.0
2016-Jul-20 00:31N 45°21' E 012°29'0 0.0
2016-Jul-19 23:32N 45°21' E 012°29'0 0.1
2016-Jul-19 22:31N 45°21' E 012°29'0 0.0
2016-Jul-19 21:31N 45°21' E 012°29'0 0.0
2016-Jul-19 20:31N 45°21' E 012°29'0 0.0
2016-Jul-19 19:26N 45°21' E 012°29'0 0.0
2016-Jul-19 18:32N 45°21' E 012°29'0 0.0
2016-Jul-19 17:33N 45°21' E 012°29'0 0.0
2016-Jul-19 16:30N 45°21' E 012°29'0 0.0
2016-Jul-19 15:33N 45°21' E 012°29'0 0.1
2016-Jul-19 14:33N 45°21' E 012°29'6 6.1
2016-Jul-19 13:33N 45°16' E 012°34'1212.4
2016-Jul-19 12:33N 45°08' E 012°47'1313.1
2016-Jul-19 11:33N 44°56' E 012°53'1413.8
2016-Jul-19 10:33N 44°43' E 012°47'1313.4
2016-Jul-19 09:33N 44°30' E 012°41'1111.0
2016-Jul-19 08:33N 44°30' E 012°25'7 7.4
2016-Jul-19 07:33N 44°28' E 012°15'1 0.3
2016-Jul-19 04:33N 44°27' E 012°15'0 0.0
2016-Jul-19 03:33N 44°27' E 012°15'0 0.0
2016-Jul-19 02:33N 44°27' E 012°15'0 0.0
2016-Jul-19 01:33N 44°27' E 012°15'0 0.0
2016-Jul-19 00:33N 44°27' E 012°15'0 0.0
2016-Jul-18 23:30N 44°27' E 012°15'0 0.0
2016-Jul-18 22:32N 44°27' E 012°15'0 0.0
2016-Jul-18 21:33N 44°27' E 012°15'0 0.0
2016-Jul-18 20:22N 44°27' E 012°15'0 0.0
2016-Jul-18 19:33N 44°27' E 012°15'0 0.0
2016-Jul-18 18:32N 44°27' E 012°15'0 0.0
2016-Jul-18 17:26N 44°27' E 012°15'0 0.0
2016-Jul-18 16:30N 44°27' E 012°15'0 0.0
2016-Jul-18 15:27N 44°27' E 012°15'0 0.0
2016-Jul-18 14:10N 44°27' E 012°15'0 0.0
2016-Jul-18 13:06N 44°27' E 012°15'2 1.2
2016-Jul-18 11:34N 44°29' E 012°16'10 4.0
2016-Jul-18 09:06N 44°31' E 012°29'0 0.0
2016-Jul-18 08:31N 44°31' E 012°29'0 0.0
2016-Jul-18 07:33N 44°31' E 012°29'0 0.1
2016-Jul-18 06:23N 44°31' E 012°29'0 0.0
2016-Jul-18 04:28N 44°31' E 012°29'0 0.0
2016-Jul-18 03:32N 44°31' E 012°29'0 0.0
2016-Jul-18 02:30N 44°31' E 012°29'0 0.0
2016-Jul-18 01:31N 44°31' E 012°29'0 0.0
2016-Jul-18 00:28N 44°31' E 012°29'0 0.0
2016-Jul-17 23:31N 44°31' E 012°29'0 0.1
2016-Jul-17 22:32N 44°31' E 012°29'0 0.1
2016-Jul-17 21:25N 44°31' E 012°29'0 0.0
2016-Jul-17 20:31N 44°31' E 012°29'0 0.0
2016-Jul-17 19:28N 44°31' E 012°29'0 0.0
2016-Jul-17 18:31N 44°31' E 012°29'0 0.0
2016-Jul-17 17:26N 44°31' E 012°29'0 0.0
2016-Jul-17 16:28N 44°31' E 012°29'0 0.0
2016-Jul-17 15:29N 44°31' E 012°29'0 0.0
2016-Jul-17 14:33N 44°31' E 012°29'0 0.0
2016-Jul-17 13:33N 44°31' E 012°29'0 0.0
2016-Jul-17 08:26N 44°31' E 012°29'5 5.4
2016-Jul-17 07:27N 44°30' E 012°36'1112.3
2016-Jul-17 06:33N 44°29' E 012°52'  
2016-Jul-15 01:31N 35°60' E 023°02'1414.1
2016-Jul-15 00:33N 36°05' E 023°18'1414.3
2016-Jul-14 23:33N 36°19' E 023°23'1414.3
2016-Jul-14 22:33N 36°33' E 023°28'1414.3
2016-Jul-14 21:34N 36°46' E 023°33'1414.4
2016-Jul-14 20:34N 37°00' E 023°36'1514.9
2016-Jul-14 19:33N 37°15' E 023°38'1414.0
2016-Jul-14 18:34N 37°29' E 023°41'1313.2
2016-Jul-14 17:33N 37°42' E 023°40'1413.8
2016-Jul-14 16:34N 37°55' E 023°36'2 1.9
2016-Jul-14 15:33N 37°57' E 023°36'0 0.0
2016-Jul-14 14:31N 37°57' E 023°36'0 0.0
2016-Jul-14 13:33N 37°57' E 023°36'0 0.0
2016-Jul-14 12:30N 37°57' E 023°36'0 0.0
2016-Jul-14 11:31N 37°57' E 023°36'0 0.0
2016-Jul-14 10:32N 37°57' E 023°36'1 1.3
2016-Jul-14 09:33N 37°56' E 023°36'4 3.8
2016-Jul-14 08:33N 37°53' E 023°38'9 8.5
2016-Jul-14 07:33N 37°45' E 023°43'1413.9
2016-Jul-14 06:33N 37°32' E 023°49'  

Dump ship's entire track history